Tiempo atmosférico en la estación meteorológica de Buitrago del Lozoya, Madrid (1026 m.)



Fecha
DESCASC
Temp. máxima en grados centígrados (hora)
DESCASC
Temp. mínima en grados centígrados (hora)
DESCASC
Temp. media en grados centígrados
DESCASC
Racha de viento máxima en m/sg (hora)
DESCASC
Velocidad máxima media en intervalos de 10 minutos(hora)
DESCASC
Precipitaciones diarias en mm
DESCASC
Precipitaciones de 00:00 a 06:00 en mm
DESCASC
Precipitaciones de 06:00 a 12:00 en mm
DESCASC
Precipitaciones de 12:00 a 18:00 en mm
DESCASC
Precipitaciones de 18:00 a 24:00 en mm
DESCASC
18-02-2018 -- (--) -- (--) -- -- (--) -- (--) -- -- -- 0 0
17-02-2018 -- (--) -- (--) -- 7.78 (12:10) 4.72 (13:20) -- -- 0 0 0
16-02-2018 -- (--) -- (--) -- -- (--) -- (--) -- -- -- 0 --
15-02-2018 -- (--) -- (--) -- -- (--) -- (--) -- -- 0 0 --
14-02-2018 -- (--) -- (--) -- -- (--) -- (--) -- 0 -- -- 0
13-02-2018 -- (--) -- (--) -- -- (--) -- (--) -- -- 0 0 0
12-02-2018 -- (--) -- (--) -- -- (--) -- (--) -- 1.5 -- 0 --
11-02-2018 -- (--) -- (--) -- -- (--) -- (--) 1.3 0 0 0.1 1.2
10-02-2018 -- (--) -- (--) -- -- (--) -- (--) -- 0 -- 0 --
09-02-2018 -- (--) -- (--) -- 9.44 (16:10) 5.28 (17:10) 0 0 0 0 0
08-02-2018 -- (--) -- (--) -- 11.11 (14:00) 5.28 (14:00) 0 0 0 0 0
07-02-2018 -- (--) -- (--) -- -- (--) -- (--) -- -- 0 -- 0
06-02-2018 -- (--) -- (--) -- -- (--) -- (--) -- 0 -- 0 --
05-02-2018 -- (--) -- (--) -- -- (--) -- (--) -- -- -- -- 0.8
04-02-2018 -- (--) -- (--) -- -- (--) -- (--) -- -- 0 0 --
03-02-2018 -- (--) -- (--) -- -- (--) -- (--) -- 0 -- -- 2.5
02-02-2018 -- (--) -- (--) -- -- (--) -- (--) -- -- -- 0 0
01-02-2018 -- (--) -- (--) -- 16.67 (18:00) 7.22 (15:20) 0.4 0 0 0.1 0.3
31-01-2018 -- (--) -- (--) -- -- (--) -- (--) -- -- -- -- 0
30-01-2018 -- (--) -- (--) -- -- (--) -- (--) -- -- 0 0 --
29-01-2018 -- (--) -- (--) -- -- (--) -- (--) -- -- -- -- --
28-01-2018 -- (--) -- (--) -- -- (--) -- (--) -- 0 -- 0 0
27-01-2018 -- (--) -- (--) -- -- (--) -- (--) -- -- -- -- 0
26-01-2018 -- (--) -- (--) -- -- (--) -- (--) -- -- 0.2 -- 0
25-01-2018 -- (--) -- (--) -- 10 (23:59) 2.78 (23:59) 5.2 0 0 2.8 2.4
24-01-2018 -- (--) -- (--) -- 4.44 (13:50) 2.5 (15:40) 0 0 0 0 0
23-01-2018 16.7 (15:00) -3.7 (-00:0) 6.5 5.28 (14:20) 2.5 (14:50) 0 0 0 0 0
22-01-2018 -- (--) -- (--) -- 9.44 (16:50) 4.72 (16:50) 0 0 0 0 0

Gráficas

Temp. máximas Temp. mínimas Temp. medias Precipitaciones Rachas de viento máximas Velocidades máximas media en intervalos de 10 minutos

Datos horarios

Fecha y hora oficial Temperatura (ºC) Velocidad del viento (km/h) Dirección del viento Racha (km/h) Dirección de racha Precipitación (mm) Presión (hPa) Tendencia (hPa) Humedad (%)
2018-02-20 23:00:00 3.4 15 Noroeste 50 Noroeste 0 901.2 -0.3 71
2018-02-20 22:00:00 4.1 19 Noroeste 47 Oeste 0 901.3 0.2 70
2018-02-20 21:00:00 4.4 23 Noroeste 54 Noroeste 0 901.8 0.8 69
2018-02-20 20:00:00 4.9 21 Noroeste 54 Noroeste 0 901.5 -0.4 67
2018-02-20 19:00:00 5.6 22 Noroeste 57 Norte 0 901.1 -1.3 63
2018-02-20 18:00:00 6.9 21 Noroeste 47 Noroeste 0 901 -1.8 58
2018-02-20 17:00:00 6.4 17 Noroeste 47 Norte 0 901.9 -1 61
2018-02-20 16:00:00 5.8 13 Noroeste 43 Norte 0 902.4 -1.6 66
2018-02-20 15:00:00 6.8 11 Noroeste 37 Noroeste 0 902.8 -1.1 63
2018-02-20 14:00:00 6.5 13 Noroeste 40 Noroeste 0 902.9 -1.1 65
2018-02-20 13:00:00 6 13 Noroeste 40 Noroeste 0 904 0.1 65
2018-02-20 12:00:00 5.6 14 Noroeste 43 Noroeste 0 903.9 0.1 67
2018-02-20 11:00:00 5.7 6 Norte 40 Noroeste 0 904 0.7 69
2018-02-20 10:00:00 5.2 8 Noroeste 37 Noroeste 0 903.9 0.8 70
2018-02-20 09:00:00 4.9 7 Noroeste 37 Noroeste 0 903.8 0.6 74
2018-02-20 08:00:00 4.7 20 Noroeste 46 Noroeste 0 903.3 0 75
2018-02-20 07:00:00 4.4 19 Noroeste 45 Noroeste 0 903.1 -0.2 78
2018-02-20 06:00:00 4.2 13 Noroeste 30 Norte 0 903.2 -0.5 79
2018-02-20 05:00:00 4.3 13 Noroeste 36 Noroeste 0 903.3 -0.5 79
2018-02-20 04:00:00 4.2 20 Noroeste -- -- -- 903.3 -0.7 79
2018-02-20 03:00:00 4.7 9 Noroeste 27 Noroeste 0 903.7 0 75
2018-02-20 02:00:00 4.7 6 Noroeste 30 Noroeste 0 903.8 -0.1 76
2018-02-20 01:00:00 4.8 15 Noroeste 39 Norte 0 904 -0.2 75
2018-02-20 00:00:00 5.3 7 Noroeste 22 Noroeste 0 903.7 -0.4 75
2018-02-19 23:00:00 5.4 9 Noroeste 23 Noroeste 0 903.9 -0.2 75
2018-02-19 22:00:00 6 6 Noroeste 29 Noroeste 0 904.2 0.4 74
2018-02-19 21:00:00 5.9 7 Noroeste 28 Noroeste 0 904.1 0.5 74
2018-02-19 20:00:00 6.4 14 Noroeste 28 Oeste 0 904.1 0.6 72
2018-02-19 19:00:00 5.8 10 Noroeste 30 Oeste 0 903.8 0.3 77
2018-02-19 18:00:00 7.7 14 Noroeste 32 Noroeste 0 903.6 0.1 65
2018-02-19 17:00:00 7.9 18 Noroeste 33 Noroeste 0 903.5 0.2 63
2018-02-19 16:00:00 7.4 12 Noroeste 36 Noroeste 0 903.5 -0.7 66
2018-02-19 15:00:00 8.8 17 Norte 41 Noroeste 0 903.5 -0.9 62
2018-02-19 14:00:00 7.9 19 Noroeste 40 Noroeste 0 903.3 -1.2 64
2018-02-19 13:00:00 7.3 20 Noroeste 40 Noroeste 0 904.2 -0.4 66
2018-02-19 12:00:00 6.5 19 Noroeste 38 Noroeste 0 904.4 0.1 71
2018-02-19 11:00:00 5.2 17 Noroeste 32 Noroeste 0 904.5 0.3 72
2018-02-19 10:00:00 4.7 13 Noroeste 24 Noroeste 0 904.6 0.7 70
2018-02-19 09:00:00 4.2 5 Noroeste 24 Noroeste 0 904.3 0.6 69
2018-02-19 08:00:00 3.8 12 Noroeste 22 Noroeste 0 904.2 0.9 69
2018-02-19 07:00:00 -- 3 Norte 17 Norte 0 903.9 -0.1 --
2018-02-19 06:00:00 3.9 7 Noroeste 20 Oeste 0 903.7 -0.6 71
2018-02-19 05:00:00 -- 4 Nordeste 14 Nordeste 0 903.3 -- --
2018-02-19 04:00:00 4.1 3 Nordeste -- -- -- 904 -- 71
2018-02-19 03:00:00 4.2 2 Norte -- -- -- 904.3 -1.1 70
2018-02-19 02:00:00 -- 5 Norte 19 Noroeste 0 -- -- --
2018-02-19 01:00:00 -- 8 Noroeste 27 Noroeste 0 -- -- --
2018-02-19 00:00:00 4.3 11 Noroeste 25 Noroeste 0 905.4 -0.6 69
2018-02-18 23:00:00 4.5 15 Noroeste 30 Noroeste 0 905.5 -- 68
2018-02-18 22:00:00 4.8 14 Noroeste 29 Noroeste 0 905.9 0 67
2018-02-18 21:00:00 5.4 12 Norte 32 Noroeste 0 906 0.4 64
2018-02-18 20:00:00 -- -- -- -- -- -- -- -- --
2018-02-18 19:00:00 7.3 10 Noroeste 28 Noroeste 0 905.9 0.2 61
2018-02-18 18:00:00 8.2 13 Noroeste 29 Noroeste 0 905.6 -0.1 51
2018-02-18 17:00:00 8.5 15 Noroeste 33 Noroeste 0 905.3 -- 47
2018-02-18 16:00:00 8.8 17 Noroeste 36 Norte 0 905.7 -1.1 42
2018-02-18 15:00:00 9.7 15 Noroeste 34 Norte 0 905.7 -1.3 37
2018-02-18 14:00:00 -- 21 Noroeste 35 Norte 0 -- -- --
2018-02-18 13:00:00 9.3 11 Norte 29 Norte 0 906.8 -0.8 28
2018-02-18 12:00:00 8.2 12 Norte 23 Norte 0 907 -0.7 32
2018-02-18 11:00:00 5.3 3 Norte 10 Oeste 0 907.6 0.1 50
2018-02-18 10:00:00 0.5 6 Oeste 11 Oeste 0 907.6 0.1 63
2018-02-18 09:00:00 -2.2 3 Oeste 8 Oeste 0 907.7 0.2 74
2018-02-18 08:00:00 -3.8 6 Oeste -- -- -- 907.5 -0.2 78
2018-02-18 07:00:00 -- 5 Oeste 11 Noroeste 0 907.5 -0.1 --
2018-02-18 06:00:00 -- 3 Noroeste -- -- -- 907.5 -0.9 --
2018-02-18 05:00:00 -3 3 Noroeste 9 Noroeste 0 907.7 -1 79
2018-02-18 04:00:00 -1.8 2 Norte 19 Norte 0 907.6 -1.3 71
2018-02-18 03:00:00 1 6 Noroeste 21 Noroeste 0 908.4 -0.3 63
2018-02-18 02:00:00 1.5 8 Noroeste -- -- -- 908.7 0.1 67
2018-02-18 01:00:00 2.2 8 Norte 22 Noroeste 0 908.9 0.4 64
2018-02-18 00:00:00 2.8 12 Norte 24 Norte 0 908.7 0.4 68
2018-02-17 23:00:00 1.9 9 Noroeste 17 Oeste 0 908.6 0.6 72
2018-02-17 22:00:00 1.1 4 Noroeste 23 Noroeste 0 908.5 0.9 69
2018-02-17 21:00:00 4.1 11 Noroeste 23 Noroeste 0 908.3 1.1 65
2018-02-17 20:00:00 5.4 4 Norte 17 Oeste 0 908 1.5 64
2018-02-17 19:00:00 5.8 8 Noroeste 23 Norte 0 907.6 0.7 65
2018-02-17 18:00:00 6.8 13 Norte 24 Norte 0 907.2 0.2 61
2018-02-17 17:00:00 7.9 11 Norte 24 Norte 0 906.5 -0.7 59
2018-02-17 16:00:00 7.6 8 Noroeste 28 Noroeste 0 906.9 -0.8 67
2018-02-17 15:00:00 8.1 10 Norte 27 Norte 0 907 -0.8 61
2018-02-17 14:00:00 8 12 Noroeste 27 Noroeste 0 907.2 -0.1 63
2018-02-17 13:00:00 8.3 13 Noroeste 28 Noroeste 0 907.7 0.7 59
2018-02-17 12:00:00 8.7 12 Noroeste 27 Noroeste 0 907.8 0.8 54
2018-02-17 11:00:00 8.6 10 Noroeste 21 Noroeste 0 907.3 0.6 55
2018-02-17 10:00:00 7.9 10 Noroeste 21 Noroeste 0 907 0.3 61
2018-02-17 09:00:00 6.3 10 Noroeste 21 Noroeste 0 907 0.2 68
2018-02-17 08:00:00 -- 6 Noroeste 12 Norte 0 906.7 0.2 --
2018-02-17 07:00:00 -- 5 Noroeste 22 Noroeste 0 906.7 0.1 --
2018-02-17 06:00:00 6.1 11 Noroeste 23 Noroeste 0 906.8 0 68
2018-02-17 05:00:00 2.7 4 Noroeste -- -- -- 906.5 -0.1 88
2018-02-17 04:00:00 2.8 0 Calma 8 Noroeste 0 906.6 -- 88
2018-02-17 03:00:00 3.3 0 Calma 7 Oeste 0 906.8 0 87
2018-02-17 02:00:00 4.1 0 Calma 3 Este 0 906.6 0 83
2018-02-17 01:00:00 -- 3 Este -- -- -- -- -- --
2018-02-17 00:00:00 -- 0 Calma 9 Noroeste 0 906.8 -- --
2018-02-16 23:00:00 5.8 0 Calma 4 Norte 0 906.6 0.3 75
2018-02-16 22:00:00 9.1 0 Calma 6 Este 0 906.5 0.6 68
2018-02-16 21:00:00 -- -- -- -- -- -- -- -- --
2018-02-16 20:00:00 9.9 3 Nordeste -- -- -- 906.3 0.8 60
2018-02-16 19:00:00 11 5 Este 9 Este 0 905.9 -- 55
2018-02-16 18:00:00 12.1 4 Nordeste 14 Nordeste 0 905.7 -0.5 50
2018-02-16 17:00:00 -- 6 Nordeste 20 Nordeste 0 905.5 -1.6 --
2018-02-16 16:00:00 -- 12 Norte 20 Nordeste 0 -- -- --
2018-02-16 15:00:00 14.2 11 Norte 22 Nordeste 0 906.2 -2.5 46
2018-02-16 14:00:00 13.5 8 Nordeste 17 Nordeste 0 907.1 -1.9 47
2018-02-16 13:00:00 12.8 8 Nordeste 14 Nordeste 0 907.9 -1 53
2018-02-16 12:00:00 11.4 4 Nordeste 9 Este 0 908.7 0 60
2018-02-16 11:00:00 9.6 2 Nordeste 7 Nordeste 0 909 0.4 74
2018-02-16 10:00:00 4.4 3 Oeste -- -- -- 908.9 0.4 91
2018-02-16 09:00:00 1.6 4 Oeste -- -- -- 908.7 0.1 92
2018-02-16 08:00:00 -- 0 Calma -- -- -- 908.6 -0.2 --
2018-02-16 07:00:00 0.7 0 Calma 6 Noroeste 0 908.5 -0.7 92
2018-02-16 06:00:00 1.1 0 Calma 10 Oeste 0 908.6 -1 92
2018-02-16 05:00:00 -- 5 Oeste -- -- -- 908.8 -1 --
2018-02-16 04:00:00 -- 0 Calma -- -- -- 909.2 -0.5 --
2018-02-16 03:00:00 2.7 0 Calma -- -- -- 909.6 -0.4 92
2018-02-16 02:00:00 -- 0 Calma -- -- -- 909.8 -0.3 --
2018-02-16 01:00:00 -- 0 Calma -- -- -- 909.7 -0.4 --
2018-02-16 00:00:00 4.4 3 Noroeste 8 Oeste 0 910 -0.2 91
2018-02-15 23:00:00 4.8 0 Calma 6 Oeste 0 910.1 -0.1 91
2018-02-15 22:00:00 4.9 0 Calma 4 Noroeste 0 910.1 0.8 90
2018-02-15 21:00:00 -- 2 Nordeste -- -- -- 910.2 0.8 --
2018-02-15 20:00:00 5.4 4 Nordeste 8 Este 0 910.2 -- 89
2018-02-15 19:00:00 5.8 0 Calma -- -- -- 909.3 0.2 87
2018-02-15 18:00:00 6 2 Este 9 Este 0 909.4 0.4 86
2018-02-15 17:00:00 -- 6 Este 14 Este 0 -- -- --
2018-02-15 16:00:00 7 7 Nordeste -- -- -- 909.1 -0.4 82
2018-02-15 15:00:00 7.1 11 Este 16 Este 0 909 -0.8 84
2018-02-15 14:00:00 6.7 9 Nordeste 17 Este 0 909.5 -0.1 85
2018-02-15 13:00:00 6.8 9 Nordeste 18 Este 0 909.5 0 89
2018-02-15 12:00:00 6.2 7 Nordeste 12 Este 0 909.8 -- 93
2018-02-15 11:00:00 4.6 2 Nordeste 8 Norte 0 909.6 1.3 93
2018-02-15 10:00:00 3.5 3 Norte 9 Norte 0 909.5 1.9 94
2018-02-15 09:00:00 -- 3 Este 13 Este 0 -- -- --
2018-02-15 08:00:00 2.5 8 Nordeste 15 Este 0 908.3 1.6 93
2018-02-15 07:00:00 4.2 2 Nordeste 13 Noroeste 0 907.6 0.6 90
2018-02-15 06:00:00 -- 4 Norte 10 Noroeste 0 907.2 0.3 --
2018-02-15 05:00:00 4 0 Calma -- -- -- 906.7 0.2 88
2018-02-15 04:00:00 -- 4 Este -- -- -- 907 0.2 --
2018-02-15 03:00:00 7.1 3 Nordeste 10 Nordeste 0 906.9 0.5 79
2018-02-15 02:00:00 7.7 6 Norte 13 Noroeste 0 906.5 0.1 77
2018-02-15 01:00:00 7 7 Nordeste -- -- -- 906.8 0.7 78
2018-02-15 00:00:00 7.5 3 Noroeste 13 Oeste 0 906.4 0.8 78
2018-02-14 23:00:00 7.4 4 Norte 10 Noroeste 0 906.4 1 77
2018-02-14 22:00:00 8 0 Calma 18 Noroeste 0 906.1 1.3 73
2018-02-14 21:00:00 -- 5 Norte -- -- -- 905.6 1 --
2018-02-14 20:00:00 7.3 5 Norte 12 Norte 0 905.4 1.2 79
2018-02-14 19:00:00 6.7 0 Calma 9 Noroeste 0 904.8 0.9 86
2018-02-14 18:00:00 6.5 4 Este 9 Este 0.1 904.6 1 86
2018-02-14 17:00:00 7.1 4 Nordeste 11 Este 0.1 904.2 0.5 83
2018-02-14 16:00:00 7.2 3 Nordeste 12 Nordeste 0.5 903.9 0 83
2018-02-14 15:00:00 8.6 5 Noroeste 15 Noroeste 0.2 903.6 -0.3 69
2018-02-14 14:00:00 -- 13 Oeste -- -- -- 903.7 0.1 --
2018-02-14 13:00:00 8.4 15 Noroeste 33 Oeste 0 903.9 0.3 65
2018-02-14 12:00:00 8.3 18 Oeste 33 Oeste 0 903.9 -- 66
2018-02-14 11:00:00 7.3 15 Oeste -- -- -- 903.6 0.8 69
2018-02-14 10:00:00 6 15 Oeste 29 Oeste 0 903.6 1 74
2018-02-14 09:00:00 -- -- -- -- -- -- -- -- --
2018-02-14 08:00:00 4.4 11 Oeste 24 Oeste 0.2 902.8 0.5 76
2018-02-14 07:00:00 5.2 8 Noroeste 25 Oeste 0 902.6 0.6 68
2018-02-14 06:00:00 5.1 9 Noroeste 21 Oeste 0 902.4 0.1 69
2018-02-14 05:00:00 4.5 8 Noroeste 21 Noroeste 0 902.3 0 77
2018-02-14 04:00:00 4.4 10 Noroeste 23 Noroeste 0 902 0.1 78
2018-02-14 03:00:00 5 9 Noroeste -- -- -- 902.3 0.2 73
2018-02-14 02:00:00 5.5 9 Noroeste 25 Noroeste 0 902.3 0.5 71
2018-02-14 01:00:00 5.4 10 Noroeste 28 Norte 0 901.9 0.6 72
2018-02-14 00:00:00 5.1 7 Noroeste 23 Noroeste 0 902.1 0.5 74
2018-02-13 23:00:00 5.2 9 Noroeste -- -- -- 901.8 0.4 75
2018-02-13 22:00:00 5.3 9 Noroeste 28 Oeste 0 901.3 0.1 74
2018-02-13 21:00:00 4.6 7 Nordeste 30 Oeste 0 901.6 0.9 74
2018-02-13 20:00:00 4.9 9 Noroeste 35 Oeste 0 901.4 -- 72
2018-02-13 19:00:00 4.5 4 Nordeste 14 Nordeste 0 901.2 0.5 73
2018-02-13 18:00:00 5.3 7 Nordeste 17 Nordeste 0 900.7 -0.3 68
2018-02-13 17:00:00 -- -- -- -- -- -- -- -- --
2018-02-13 16:00:00 5.9 11 Noroeste 39 Oeste 0 900.7 -2.2 66
2018-02-13 15:00:00 5.2 6 Noroeste 26 Oeste 0 901 -1.7 67
2018-02-13 14:00:00 1.7 9 Nordeste 23 Noroeste 0 902.1 -0.6 72
2018-02-13 13:00:00 1.5 6 Noroeste 19 Oeste 0 902.9 0.6 67
2018-02-13 12:00:00 1.8 5 Norte 9 Norte 0 902.7 0.1 57
2018-02-13 11:00:00 1.2 3 Nordeste 14 Noroeste 0 902.7 0.4 63
2018-02-13 10:00:00 -- 0 Calma 9 Norte 0 902.3 0 --
2018-02-13 09:00:00 -4.8 3 Nordeste 10 Noroeste 0 902.6 -0.1 85
2018-02-13 08:00:00 -6.5 3 Norte 9 Norte 0 902.3 -0.3 86
2018-02-13 07:00:00 -6 4 Noroeste -- -- 0 902.3 -1.3 88
2018-02-13 06:00:00 -6.5 3 Noroeste -- -- -- 902.7 -1.3 88
2018-02-13 05:00:00 -5.9 0 Calma 9 Noroeste 0 902.6 -1.2 88
2018-02-13 04:00:00 -6.1 3 Noroeste 7 Norte 0 903.6 -0.6 86
2018-02-13 03:00:00 -5.2 2 Norte -- -- -- 904 -0.5 84
2018-02-13 02:00:00 -4.6 2 Noroeste 11 Noroeste 0 903.8 -0.6 83
2018-02-13 01:00:00 -4 2 Noroeste 8 Oeste 0 904.2 0 82
2018-02-13 00:00:00 -3.3 2 Norte 9 Noroeste 0 904.5 0.8 81
2018-02-12 23:00:00 -3.2 0 Calma -- -- -- 904.4 0.1 78
2018-02-12 22:00:00 -3.4 7 Oeste -- -- -- 904.2 0.4 81
2018-02-12 21:00:00 -3.1 0 Calma 8 Oeste 0 903.7 0.2 76
2018-02-12 20:00:00 -1.3 0 Calma 21 Norte 0 904.3 0.9 68
2018-02-12 19:00:00 0.5 8 Norte 22 Noroeste 0 903.8 0.6 57
2018-02-12 18:00:00 2.2 12 Oeste 22 Oeste 0 903.5 0.2 52
2018-02-12 17:00:00 1.7 7 Oeste 35 Norte 0 903.4 -0.3 59
2018-02-12 16:00:00 3.3 15 Noroeste 34 Noroeste 0 903.2 -0.7 51
2018-02-12 15:00:00 -- 17 Noroeste 30 Noroeste 0 903.3 -0.8 --
2018-02-12 14:00:00 2.7 13 Noroeste 35 Noroeste 0 903.7 0 56
2018-02-12 13:00:00 -- 12 Noroeste -- -- -- 903.9 -- --
2018-02-12 12:00:00 2.9 10 Noroeste 27 Norte 0 904.1 0.9 60
2018-02-12 11:00:00 2.3 12 Norte 31 Noroeste 0 903.7 0.8 61
2018-02-12 10:00:00 -- -- -- -- -- -- -- -- --
2018-02-12 09:00:00 0.2 10 Noroeste -- -- -- 903.2 0.3 74
2018-02-12 08:00:00 0.7 16 Noroeste 31 Noroeste 0 902.9 0.3 76
2018-02-12 07:00:00 0.9 12 Noroeste 28 Noroeste 0 902.2 -0.9 77
2018-02-12 06:00:00 1.4 13 Noroeste 24 Noroeste 0 902.9 -0.1 76
2018-02-12 05:00:00 1.8 12 Noroeste 23 Norte 0 902.6 -0.5 78
2018-02-12 04:00:00 2.6 8 Noroeste 19 Noroeste 0 903.1 -0.2 83
2018-02-12 03:00:00 3.7 5 Oeste 21 Noroeste 0.3 903 -0.4 85
2018-02-12 02:00:00 -- 15 Noroeste 26 Noroeste 0.6 903.1 -0.3 --
2018-02-12 01:00:00 5.4 10 Noroeste 22 Oeste 0.6 903.3 -0.4 85
2018-02-12 00:00:00 5.8 9 Noroeste 27 Oeste 0.1 903.4 -0.4 83
2018-02-11 23:00:00 -- 6 Oeste 13 Oeste 0.1 903.4 -0.3 --
2018-02-11 22:00:00 5.9 0 Calma 11 Oeste 0.6 903.7 0.1 83
2018-02-11 21:00:00 6.4 4 Noroeste -- -- -- 903.8 0.1 80
2018-02-11 20:00:00 6.3 3 Noroeste 19 Oeste 0.4 903.7 0.2 80
2018-02-11 19:00:00 7 8 Oeste 26 Noroeste 0 903.6 -0.1 76
2018-02-11 18:00:00 7.2 7 Oeste 23 Oeste 0.1 903.7 -0.5 74
2018-02-11 17:00:00 8.2 6 Noroeste 26 Oeste 0 903.5 -1.4 65
2018-02-11 16:00:00 9 13 Noroeste 33 Oeste 0 903.7 -1.8 61
2018-02-11 15:00:00 8.8 11 Oeste 29 Oeste 0 904.2 -1.4 66
2018-02-11 14:00:00 7.5 16 Noroeste 34 Noroeste 0 904.9 -- 72
2018-02-11 13:00:00 7.6 5 Norte 27 Oeste 0 905.5 0.1 70
2018-02-11 12:00:00 7.1 13 Noroeste -- -- -- 905.6 0.3 72
2018-02-11 11:00:00 -- 12 Noroeste 37 Oeste 0 -- -- --
2018-02-11 10:00:00 6.4 14 Noroeste 33 Noroeste 0 905.4 0.5 77
2018-02-11 09:00:00 5.4 11 Oeste 27 Oeste 0 905.3 0.5 79
2018-02-11 08:00:00 3 3 Norte 19 Nordeste 0 904.8 0.3 75
2018-02-11 07:00:00 3.3 8 Norte -- -- -- 904.9 0.2 76
2018-02-11 06:00:00 3.6 6 Norte 27 Noroeste 0 904.8 -0.1 79
2018-02-11 05:00:00 -- 13 Noroeste -- -- 0 904.5 -0.2 --
2018-02-11 04:00:00 3.9 22 Noroeste 41 Oeste 0 904.7 -0.2 68
2018-02-11 03:00:00 -- 12 Noroeste 30 Oeste 0 904.9 -0.3 --
2018-02-11 02:00:00 3.6 15 Noroeste 37 Oeste 0 904.7 -0.6 64
2018-02-11 01:00:00 3.7 19 Noroeste 32 Noroeste 0 904.9 -0.5 57
2018-02-11 00:00:00 3.4 13 Noroeste 31 Noroeste 0 905.2 -0.1 55
2018-02-10 23:00:00 2 5 Noroeste -- -- -- 905.3 -- 59
2018-02-10 22:00:00 2.4 6 Noroeste 23 Noroeste 0 905.4 0.3 58
2018-02-10 21:00:00 2.3 11 Noroeste 30 Noroeste 0 905.3 0.5 58
2018-02-10 20:00:00 -- -- -- -- -- -- -- -- --
2018-02-10 19:00:00 1.8 15 Noroeste 33 Oeste 0 905.1 0.1 61
2018-02-10 18:00:00 2.5 16 Noroeste 38 Norte 0 904.8 -0.7 59
2018-02-10 17:00:00 -- 20 Noroeste 39 Noroeste 0 904.4 -1.4 --
2018-02-10 16:00:00 -- 10 Noroeste 42 Norte 0 905 -1.2 --
2018-02-10 15:00:00 2.3 12 Noroeste 39 Norte 0 905.5 -0.8 58
2018-02-10 14:00:00 2.8 13 Norte 40 Norte 0 905.8 -1 58
2018-02-10 13:00:00 1.9 12 Noroeste 36 Noroeste 0 906.2 0 59
2018-02-10 12:00:00 -- 7 Noroeste 31 Noroeste 0 906.3 0.2 --
2018-02-10 11:00:00 1.3 10 Norte 38 Noroeste 0 906.8 1.2 64
2018-02-10 10:00:00 0.7 11 Noroeste 37 Norte 0 906.2 0.9 64
2018-02-10 09:00:00 -0.2 7 Noroeste -- -- -- 906.1 0.5 70
2018-02-10 08:00:00 -1.1 0 Calma -- -- -- 905.6 0.3 73
2018-02-10 07:00:00 -0.9 3 Noroeste -- -- -- 905.3 -0.2 71
2018-02-10 06:00:00 -0.7 5 Noroeste 16 Norte 0 905.6 0.1 70
2018-02-10 05:00:00 -- 5 Noroeste 39 Nordeste 0 905.3 -1 --
2018-02-10 04:00:00 -1 5 Noroeste 16 Noroeste 0 905.5 -0.8 68
2018-02-10 03:00:00 -0.7 7 Norte 24 Nordeste 0 905.5 -0.1 67
2018-02-10 02:00:00 -0.7 12 Norte 31 Nordeste 0 906.3 0.4 69
2018-02-10 01:00:00 -- 5 Norte 21 Norte 0 906.3 0.4 --
2018-02-10 00:00:00 0.4 5 Norte 19 Norte 0 905.6 -0.3 74
2018-02-09 23:00:00 0.9 8 Norte 26 Noroeste 0 905.9 0.8 73
2018-02-09 22:00:00 0.9 5 Norte 22 Norte 0 905.9 1.6 79
2018-02-09 21:00:00 1.3 6 Noroeste 21 Noroeste 0 905.9 2.2 78
2018-02-09 20:00:00 1 8 Noroeste 24 Noroeste 0 905.1 2.1 81
2018-02-09 19:00:00 1.1 10 Noroeste 29 Noroeste 0 904.3 1.6 81
2018-02-09 18:00:00 0.9 8 Norte 33 Oeste 0 903.7 1.6 80
2018-02-09 17:00:00 2.1 17 Noroeste 34 Oeste 0 903 0.5 73
2018-02-09 16:00:00 3.9 16 Noroeste 31 Norte 0 902.7 -0.1 66
2018-02-09 15:00:00 4.7 13 Norte 23 Norte 0 902.1 -0.7 64
2018-02-09 14:00:00 3.9 9 Norte 24 Norte 0 902.5 -0.7 64
2018-02-09 13:00:00 -- 9 Norte -- -- -- 902.8 0.2 --
2018-02-09 12:00:00 4.1 11 Noroeste 31 Noroeste 0 902.8 0.6 58
2018-02-09 11:00:00 0.9 11 Norte -- -- -- 903.2 1.2 59
2018-02-09 10:00:00 -2.1 4 Oeste 6 Oeste 0 902.6 0.6 69
2018-02-09 09:00:00 -5.2 3 Norte 9 Oeste 0 902.2 0 78
2018-02-09 08:00:00 -7.1 2 Oeste 8 Oeste 0 902 -0.3 79
2018-02-09 07:00:00 -7.1 4 Noroeste 13 Oeste 0 902 -0.5 79
2018-02-09 06:00:00 -6.4 5 Noroeste 9 Noroeste 0 902.2 -0.5 78
2018-02-09 05:00:00 -- 5 Oeste 10 Oeste 0 902.3 -0.8 --
2018-02-09 04:00:00 -7.4 3 Norte 8 Noroeste 0 902.5 -0.3 79
2018-02-09 03:00:00 -6.6 4 Noroeste 9 Oeste 0 902.7 -0.3 76
2018-02-09 02:00:00 -6.5 3 Noroeste 6 Noroeste 0 903.1 0 75
2018-02-09 01:00:00 -- 5 Noroeste 9 Oeste 0 902.8 -0.5 --
2018-02-09 00:00:00 -5 0 Calma -- -- -- 903 -0.4 71
2018-02-08 23:00:00 -2.9 3 Noroeste 23 Noroeste 0 903.1 -0.3 63
2018-02-08 22:00:00 -2 6 Noroeste 20 Noroeste 0 903.3 0.1 61
2018-02-08 21:00:00 -0.9 12 Noroeste 23 Norte 0 903.4 0.6 59
2018-02-08 20:00:00 -- 6 Noroeste 25 Norte 0 903.4 0.7 --
2018-02-08 19:00:00 -0.6 11 Noroeste 25 Noroeste 0 903.2 0.3 59
2018-02-08 18:00:00 -0.4 9 Noroeste 19 Noroeste 0 902.8 -0.1 60
2018-02-08 17:00:00 -0.1 10 Noroeste 30 Noroeste 0 902.7 -0.4 60
2018-02-08 16:00:00 0.1 14 Noroeste 31 Noroeste 0 902.9 -1.1 60
2018-02-08 15:00:00 0.6 13 Noroeste -- -- -- 902.9 -0.9 58
2018-02-08 14:00:00 0.1 19 Noroeste 40 Noroeste 0 903.1 -0.5 60
2018-02-08 13:00:00 -0.6 12 Noroeste 34 Noroeste 0 904 0.4 63
2018-02-08 12:00:00 -0.2 12 Noroeste 35 Norte 0 903.8 0.7 59
2018-02-08 11:00:00 -1.3 16 Noroeste 36 Noroeste 0 903.6 0.6 62
2018-02-08 10:00:00 -- 9 Noroeste 26 Noroeste 0 903.6 1.1 --
2018-02-08 09:00:00 -3.3 10 Noroeste 31 Norte 0 903.1 0.4 72
2018-02-08 08:00:00 -4.5 3 Noroeste 17 Noroeste 0 903 0.4 74
2018-02-08 07:00:00 -4.9 2 Norte 16 Norte 0 902.5 0.1 74
2018-02-08 06:00:00 -5.1 3 Nordeste 14 Norte 0 902.7 0 73
2018-02-08 05:00:00 -4.6 4 Nordeste 16 Noroeste 0 902.6 -0.2 71
2018-02-08 04:00:00 -4.7 8 Norte 25 Nordeste 0 902.4 0 69
2018-02-08 03:00:00 -4.9 5 Norte 13 Norte 0 902.7 0.1 71
2018-02-08 02:00:00 -4.5 4 Noroeste 16 Norte 0 902.8 0.3 71
2018-02-08 01:00:00 -3.8 11 Noroeste -- -- -- 902.4 0.5 72
2018-02-08 00:00:00 -3.5 10 Norte 28 Noroeste 0 902.6 1.4 71
2018-02-07 23:00:00 -3.1 10 Noroeste 24 Noroeste 0 902.5 1.6 70
2018-02-07 22:00:00 -2.8 4 Norte -- -- -- 901.9 1.3 67
2018-02-07 21:00:00 -2.3 4 Noroeste 21 Norte 0 901.2 1 65
2018-02-07 20:00:00 -1.8 11 Noroeste 34 Noroeste 0 900.9 -- 60
2018-02-07 19:00:00 -1.4 11 Noroeste 29 Noroeste 0 900.6 -- 57
2018-02-07 18:00:00 -0.6 15 Noroeste 35 Noroeste 0 900.2 0.4 53
2018-02-07 17:00:00 -- -- -- -- -- -- -- -- --
2018-02-07 16:00:00 -- 19 Noroeste 38 Noroeste 0 -- -- --
2018-02-07 15:00:00 0.8 13 Noroeste -- -- -- 899.8 -0.1 61
2018-02-07 14:00:00 -- 18 Noroeste 34 Noroeste 0 -- -- --
2018-02-07 13:00:00 -0.6 12 Noroeste 31 Noroeste 0 900.3 1.9 64
2018-02-07 12:00:00 -1.3 13 Noroeste 33 Norte 0 899.9 1.9 66
2018-02-07 11:00:00 -1.7 14 Noroeste 42 Noroeste 0 899.2 1.9 68
2018-02-07 10:00:00 -2.1 11 Noroeste -- -- -- 898.4 1.3 70
2018-02-07 09:00:00 -2.3 13 Noroeste 45 Noroeste 0 898 0.9 70
2018-02-07 08:00:00 -2.4 13 Noroeste 40 Norte 0 897.3 0.3 68
2018-02-07 07:00:00 -2.9 13 Noroeste 26 Noroeste 0 897.1 0 71
2018-02-07 06:00:00 -3.2 5 Norte 27 Noroeste 0 897.1 0.4 73
2018-02-07 05:00:00 -3.2 7 Noroeste 30 Noroeste 0 897 0.3 71
2018-02-07 04:00:00 -3.3 8 Norte -- -- -- 897.1 0.4 72
2018-02-07 03:00:00 -3.5 8 Norte 29 Norte 0 896.7 0 72
2018-02-07 02:00:00 -3.7 4 Norte -- -- -- 896.7 -0.3 71
2018-02-07 01:00:00 -3 10 Noroeste 37 Noroeste 0 896.7 -0.2 68
2018-02-07 00:00:00 -3.5 10 Norte 24 Norte 0 896.7 0.5 71
2018-02-06 23:00:00 -3.1 10 Noroeste 23 Noroeste 0 897 0.9 68
2018-02-06 22:00:00 -2.7 13 Noroeste 31 Norte 0 896.9 1.8 65
2018-02-06 21:00:00 -2.5 10 Noroeste -- -- -- 896.2 -- 64
2018-02-06 20:00:00 -1.9 17 Noroeste -- -- -- 896.1 1.3 62
2018-02-06 19:00:00 -1.9 23 Noroeste 46 Noroeste 0 895.1 0.3 60
2018-02-06 18:00:00 -- 17 Noroeste 42 Noroeste 0 -- -- --
2018-02-06 17:00:00 -- 18 Noroeste 37 Noroeste 0 894.8 -0.4 --
2018-02-06 16:00:00 -0.7 8 Noroeste 41 Noroeste 0 894.8 -0.7 57
2018-02-06 15:00:00 -- -- -- -- -- -- -- -- --
2018-02-06 14:00:00 -0.4 24 Noroeste 44 Oeste 0 895.2 0.3 54
2018-02-06 13:00:00 -- 17 Noroeste 32 Noroeste 0 895.5 1.1 --
2018-02-06 12:00:00 -0.9 17 Noroeste 40 Norte 0 895.4 -- 55
2018-02-06 11:00:00 -1.4 12 Noroeste 46 Noroeste 0 894.9 0.9 55
2018-02-06 10:00:00 -2.7 20 Oeste 46 Noroeste 0 894.4 0.9 65
2018-02-06 09:00:00 -- -- -- -- -- -- -- -- --
2018-02-06 08:00:00 -3.5 17 Noroeste 41 Norte 0 894 0.7 79
2018-02-06 07:00:00 -2.7 13 Noroeste -- -- -- 893.5 0.5 78
2018-02-06 06:00:00 -2.7 18 Noroeste 38 Noroeste 0 893.3 0.2 82
2018-02-06 05:00:00 -2.2 15 Noroeste 44 Norte 0 893.3 0.1 82
2018-02-06 04:00:00 -2.3 13 Noroeste 31 Noroeste 0 893 -0.5 83
2018-02-06 03:00:00 -2.2 15 Noroeste 33 Norte 0 893.1 -0.3 83
2018-02-06 02:00:00 -1.9 13 Noroeste 26 Noroeste 0 893.2 0.1 82
2018-02-06 01:00:00 -1.7 12 Noroeste -- -- -- 893.5 0.4 83
2018-02-06 00:00:00 -1.6 8 Noroeste 17 Norte 0.1 893.4 0.8 84
2018-02-05 23:00:00 -1.8 6 Norte 15 Norte 0 893.1 0.9 88
2018-02-05 22:00:00 -1.4 3 Oeste 8 Norte 0.1 893.1 -- 89
2018-02-05 21:00:00 -1.1 2 Norte 10 Nordeste 0.3 892.6 1.9 89
2018-02-05 20:00:00 -0.9 0 Calma 18 Norte 0.1 892.2 1.9 88
2018-02-05 19:00:00 -- -- -- -- -- -- -- -- --
2018-02-05 18:00:00 -0.7 8 Norte -- -- -- 890.7 0.7 88
2018-02-05 17:00:00 -0.6 5 Nordeste -- -- -- 890.3 -0.1 86
2018-02-05 16:00:00 -0.1 11 Norte 26 Noroeste 0.1 889.9 -0.5 82
2018-02-05 15:00:00 0 9 Norte -- -- -- 890 -0.8 83
2018-02-05 14:00:00 -0.7 10 Norte 28 Norte 0.4 890.4 0 85
2018-02-05 13:00:00 -0.1 4 Norte 28 Noroeste 0.8 890.4 0 82
2018-02-05 12:00:00 -0.5 11 Norte -- -- -- 890.8 0.5 78
2018-02-05 11:00:00 -0.3 10 Norte 20 Norte 0 890.4 0.7 74
2018-02-05 10:00:00 0 7 Norte 18 Norte 0 890.4 -- 72
2018-02-05 09:00:00 -0.4 7 Norte -- -- -- 890.3 -0.2 71
2018-02-05 08:00:00 -0.9 6 Noroeste 23 Norte 0 889.7 -0.8 74
2018-02-05 07:00:00 -- -- -- -- -- -- -- -- --
2018-02-05 06:00:00 -0.6 10 Noroeste 21 Norte 0 890.5 -- 75
2018-02-05 05:00:00 -0.5 6 Norte 18 Oeste 0 890.5 -0.7 75
2018-02-05 04:00:00 -0.4 9 Noroeste 17 Norte 0 890.8 -1.6 76
2018-02-05 03:00:00 -- 2 Nordeste -- -- -- -- -- --
2018-02-05 02:00:00 -1.2 2 Norte 9 Norte 0 891.2 -1.5 76
2018-02-05 01:00:00 -0.5 3 Nordeste -- -- -- 892.4 -0.5 78
2018-02-05 00:00:00 -0.2 2 Norte -- -- -- 892.3 -0.7 75
2018-02-04 23:00:00 -0.1 6 Norte 15 Norte 0 892.7 -0.1 76
2018-02-04 22:00:00 0 8 Norte -- -- -- 892.9 0.4 75
2018-02-04 21:00:00 0.1 8 Norte 22 Norte 0 893 0.5 75
2018-02-04 20:00:00 0.4 8 Norte -- -- 0 892.8 0.4 74
2018-02-04 19:00:00 0.4 9 Norte 24 Noroeste 0 892.5 0 75
2018-02-04 18:00:00 0.4 5 Norte 14 Norte 0 892.5 -0.1 77
2018-02-04 17:00:00 0.7 5 Noroeste 18 Norte 0 892.4 -0.9 75
2018-02-04 16:00:00 0.7 9 Noroeste 18 Noroeste 0 892.5 -1.3 75
2018-02-04 15:00:00 0.5 12 Noroeste 32 Noroeste 0 892.6 -1.7 74
2018-02-04 14:00:00 0.3 12 Noroeste 27 Noroeste 0 893.3 -0.9 72
2018-02-04 13:00:00 0.9 11 Noroeste 26 Noroeste 0 893.8 -0.3 70
2018-02-04 12:00:00 0.4 10 Noroeste 23 Norte 0 894.3 0.3 72
2018-02-04 11:00:00 0.3 8 Norte -- -- -- 894.2 0.4 74
2018-02-04 10:00:00 -0.2 8 Noroeste 18 Norte 0 894.1 0.2 76
2018-02-04 09:00:00 -- 8 Norte 24 Noroeste 0 894 -0.3 --
2018-02-04 08:00:00 -0.2 9 Norte 28 Norte 0 893.8 -0.6 78
2018-02-04 07:00:00 -0.4 7 Noroeste 17 Nordeste 0 893.9 -- 86
2018-02-04 06:00:00 0 8 Noroeste 14 Oeste 0 894.3 -0.8 87
2018-02-04 05:00:00 0 5 Oeste 9 Noroeste 0.1 894.4 -- 89
2018-02-04 04:00:00 -- -- -- -- -- -- -- -- --
2018-02-04 03:00:00 0.1 8 Norte 13 Norte 0.8 895.1 -2.1 90
2018-02-04 02:00:00 -- -- -- -- -- -- -- -- --
2018-02-04 01:00:00 -- 3 Noroeste 11 Norte 0.5 896.4 -1.7 --
2018-02-04 00:00:00 1.7 0 Calma 10 Noroeste 1.6 897.2 -1.3 87
2018-02-03 23:00:00 2.5 4 Oeste 11 Noroeste 0.9 897.8 -1.1 82
2018-02-03 22:00:00 3.5 5 Oeste 17 Oeste 0 898.1 -0.8 75
2018-02-03 21:00:00 3.8 5 Oeste 22 Oeste 0 898.5 -0.9 71
2018-02-03 20:00:00 3.7 9 Oeste 19 Noroeste 0 898.9 -0.7 71
2018-02-03 19:00:00 3.7 4 Noroeste 13 Oeste 0 898.9 -0.6 62
2018-02-03 18:00:00 4 9 Oeste 22 Oeste 0 899.4 -0.5 56
2018-02-03 17:00:00 4.8 8 Noroeste 22 Oeste 0 899.6 -1.2 51
2018-02-03 16:00:00 6.2 13 Noroeste 22 Noroeste 0 899.5 -2.7 50
2018-02-03 15:00:00 6.2 9 Norte 24 Nordeste 0 899.9 -2.6 47
2018-02-03 14:00:00 5.1 12 Noroeste -- -- -- 900.8 -1.8 49
2018-02-03 13:00:00 3.7 24 Noroeste 42 Noroeste 0 902.2 -0.3 53
2018-02-03 12:00:00 2.3 20 Noroeste -- -- -- 902.5 0 52
2018-02-03 11:00:00 2 12 Noroeste -- -- -- 902.6 0.3 55
2018-02-03 10:00:00 0 14 Noroeste 27 Noroeste 0 902.5 0.7 63
2018-02-03 09:00:00 -1.4 11 Oeste 29 Oeste 0 902.5 -- 67
2018-02-03 08:00:00 -1.2 13 Noroeste -- -- -- 902.3 1 67
2018-02-03 07:00:00 -1.6 12 Noroeste -- -- -- 901.8 0 68
2018-02-03 06:00:00 -- 14 Noroeste 28 Noroeste 0 -- -- --
2018-02-03 05:00:00 -1.5 22 Oeste 31 Oeste 0 901.3 0 67
2018-02-03 04:00:00 -1.7 15 Noroeste 34 Noroeste 0 901.8 0 68
2018-02-03 03:00:00 -1.6 11 Noroeste 28 Noroeste 0 901.9 -0.2 71
2018-02-03 02:00:00 -1.7 14 Noroeste 35 Oeste 0 901.3 -0.5 71
2018-02-03 01:00:00 -1.1 15 Noroeste 30 Noroeste 0 901.8 0.5 67
2018-02-03 00:00:00 -0.8 12 Noroeste 22 Noroeste 0 902.1 1.2 65
2018-02-02 23:00:00 -0.7 7 Noroeste 19 Norte 0 901.8 1.3 65
2018-02-02 22:00:00 -0.6 8 Norte 24 Norte 0 901.3 1.4 64
2018-02-02 21:00:00 -0.8 8 Noroeste 32 Norte 0 900.9 1.5 64
2018-02-02 20:00:00 -0.6 13 Noroeste 26 Noroeste 0 900.5 2.2 63
2018-02-02 19:00:00 0 12 Noroeste 28 Noroeste 0 899.9 2.3 61
2018-02-02 18:00:00 0.2 8 Noroeste 33 Noroeste 0 899.4 2 62
2018-02-02 17:00:00 0.6 14 Noroeste 38 Noroeste 0 898.3 1 58
2018-02-02 16:00:00 1.1 17 Noroeste 46 Oeste 0 897.6 0.1 55
2018-02-02 15:00:00 1.1 19 Noroeste 46 Noroeste 0 897.4 -- 59
2018-02-02 14:00:00 -- 21 Noroeste -- -- -- 897.3 0.5 --
2018-02-02 13:00:00 0.5 23 Noroeste 52 Noroeste 0 897.5 1.2 63
2018-02-02 12:00:00 -- 24 Noroeste 50 Noroeste 0 -- -- --
2018-02-02 11:00:00 -1.4 20 Noroeste 45 Noroeste 0.1 896.8 2.5 73
2018-02-02 10:00:00 -2.4 13 Noroeste 49 Noroeste 0 896.3 2.3 78
2018-02-02 09:00:00 -2.5 14 Noroeste 46 Noroeste 0 895.6 1.3 78
2018-02-02 08:00:00 -2.5 17 Noroeste -- -- -- 894.3 0.5 79
2018-02-02 07:00:00 -2.3 14 Noroeste -- -- -- 894 -0.1 78
2018-02-02 06:00:00 -2 9 Noroeste 30 Oeste 0 894.3 0.2 78
2018-02-02 05:00:00 -2 13 Noroeste 37 Norte 0 893.8 -0.1 77
2018-02-02 04:00:00 -1.7 16 Noroeste -- -- -- 894.1 -0.1 74
2018-02-02 03:00:00 -1.5 7 Noroeste 26 Norte 0 894.1 -0.2 71
2018-02-02 02:00:00 -1.2 5 Noroeste 32 Noroeste 0 893.9 -0.6 72
2018-02-02 01:00:00 -1.5 4 Norte -- -- -- 894.2 -0.2 75
2018-02-02 00:00:00 -1.6 5 Noroeste 30 Noroeste 0 894.3 0.4 74
2018-02-01 23:00:00 -1.6 3 Nordeste 23 Oeste 0 894.5 0.7 75
2018-02-01 22:00:00 -1.6 6 Nordeste 18 Este 0 894.4 0.3 75
2018-02-01 21:00:00 -1.4 5 Norte 24 Norte 0.1 893.9 -0.1 75
2018-02-01 20:00:00 -- 3 Norte 27 Norte 0 893.8 0.6 --
2018-02-01 19:00:00 -1.1 15 Norte 50 Norte 0.2 894.1 0.2 83
2018-02-01 18:00:00 -- 26 Norte 60 Norte 0.1 894 0 --
2018-02-01 17:00:00 4.5 9 Noroeste 27 Noroeste 0 893.2 -2.3 56
2018-02-01 16:00:00 4.8 10 Noroeste 49 Noroeste 0 893.9 -2.4 59
2018-02-01 15:00:00 -- 25 Noroeste 50 Oeste 0 894 -- --
2018-02-01 14:00:00 4.4 21 Noroeste -- -- -- 895.5 -2 68
2018-02-01 13:00:00 4 9 Nordeste 20 Nordeste 0 896.3 -1.4 69
2018-02-01 12:00:00 -- 6 Este -- -- -- -- -- --
2018-02-01 11:00:00 4.2 9 Oeste 23 Oeste 0 897.5 -0.8 68
2018-02-01 10:00:00 3.4 2 Nordeste 11 Nordeste 0 897.7 -0.9 67
2018-02-01 09:00:00 2.8 3 Este 12 Norte 0 897.8 -1.2 66
2018-02-01 08:00:00 -- 0 Calma 9 Norte 0 898.3 -1.2 --
2018-02-01 07:00:00 3.1 3 Noroeste 13 Oeste 0 898.6 -1.8 64
2018-02-01 06:00:00 1.5 7 Noroeste 12 Noroeste 0 899 -2.2 68
2018-02-01 05:00:00 0.2 6 Noroeste 11 Noroeste 0 899.5 -2.5 69
2018-02-01 04:00:00 -1.6 3 Noroeste 8 Oeste 0 900.4 -2.4 75
2018-02-01 03:00:00 -0.6 0 Calma 13 Oeste 0 901.2 -2.3 72
2018-02-01 02:00:00 -3 3 Oeste 6 Oeste 0 902 -1.6 78
2018-02-01 01:00:00 -1.5 3 Oeste 10 Oeste 0 902.8 -0.9 74
2018-02-01 00:00:00 -2.1 0 Calma 5 Norte 0 903.5 0.2 73
2018-01-31 23:00:00 -0.5 4 Noroeste 8 Noroeste 0 903.6 0.3 68
2018-01-31 22:00:00 1.1 0 Calma 11 Oeste 0 903.7 -0.2 58
2018-01-31 21:00:00 4 8 Norte 15 Norte 0 903.3 -0.6 49
2018-01-31 20:00:00 7.4 7 Norte 22 Oeste 0 903.3 -1.1 42
2018-01-31 19:00:00 4.6 5 Noroeste 10 Noroeste 0 903.9 -1.1 55
2018-01-31 18:00:00 10.6 3 Norte 15 Noroeste 0 903.9 -1.9 35
2018-01-31 17:00:00 -- 2 Noroeste 10 Este 0 904.4 -2.5 --
2018-01-31 16:00:00 12.2 7 Este 12 Este 0 905 -2.6 33
2018-01-31 15:00:00 11.8 5 Nordeste -- -- -- 905.8 -2.7 34
2018-01-31 14:00:00 10.8 5 Nordeste -- -- -- 906.9 -1.9 34
2018-01-31 13:00:00 10.2 6 Nordeste 15 Nordeste 0 907.6 -1.4 39
2018-01-31 12:00:00 7.2 5 Oeste 8 Noroeste 0 908.5 -0.7 43
2018-01-31 11:00:00 4.8 0 Calma 10 Noroeste 0 908.8 -0.1 58
2018-01-31 10:00:00 -- 3 Noroeste 8 Oeste 0 909 -- --
2018-01-31 09:00:00 -3.7 0 Calma -- -- -- 909.2 0.3 86
2018-01-31 08:00:00 -4.7 3 Noroeste 8 Oeste 0 908.9 -0.1 87
2018-01-31 07:00:00 -- -- -- -- -- -- -- -- --
2018-01-31 06:00:00 -4.5 6 Noroeste -- -- 0 908.9 -0.9 86
2018-01-31 05:00:00 -4.7 4 Oeste -- -- -- 909 -1.4 86
2018-01-31 04:00:00 -4.1 4 Noroeste 9 Noroeste 0 909.4 -- 87
2018-01-31 03:00:00 -4.3 0 Calma 8 Oeste 0 909.8 -1.2 87
2018-01-31 02:00:00 -4.2 4 Noroeste 5 Oeste 0 910.4 -0.9 86
2018-01-31 01:00:00 -- -- -- -- -- -- -- -- --
2018-01-31 00:00:00 -3.6 2 Oeste -- -- -- 911 0.2 82
2018-01-30 23:00:00 -2.5 0 Calma 6 Noroeste 0 911.3 0.6 81
2018-01-30 22:00:00 -1.2 5 Oeste -- -- -- 911.3 1 79
2018-01-30 21:00:00 -0.6 3 Noroeste -- -- -- 910.8 0.8 75
2018-01-30 20:00:00 1.5 0 Calma 10 Noroeste 0 910.7 0.8 64
2018-01-30 19:00:00 3.9 4 Noroeste 7 Oeste 0 910.3 -0.1 56
2018-01-30 18:00:00 9.9 3 Norte 8 Nordeste 0 910 -0.7 38
2018-01-30 17:00:00 10.9 4 Nordeste 11 Nordeste 0 909.9 -1.3 36
2018-01-30 16:00:00 11.8 4 Norte 14 Nordeste 0 910.4 -1.8 36
2018-01-30 15:00:00 11.3 5 Nordeste 16 Nordeste 0 910.7 -2.5 36
2018-01-30 14:00:00 11.2 10 Nordeste 15 Nordeste 0 911.2 -2.2 38
2018-01-30 13:00:00 10.5 2 Norte 10 Norte 0 912.2 -1.5 40
2018-01-30 12:00:00 7.5 2 Oeste -- -- -- 913.2 -0.7 49
2018-01-30 11:00:00 4.4 3 Nordeste 7 Norte 0 913.4 -0.4 65
2018-01-30 10:00:00 -0.2 4 Oeste 6 Oeste 0 913.7 0.3 88
2018-01-30 09:00:00 -- 4 Noroeste 6 Oeste 0 913.9 0.7 --
2018-01-30 08:00:00 -4.8 5 Oeste 8 Oeste 0 913.8 0.3 91
2018-01-30 07:00:00 -4.5 4 Noroeste 7 Noroeste 0 913.4 -0.5 91
2018-01-30 06:00:00 -4.1 4 Noroeste -- -- -- 913.2 -- 91
2018-01-30 05:00:00 -- 6 Noroeste 8 Noroeste 0 913.5 -- --
2018-01-30 04:00:00 -2.6 2 Noroeste -- -- -- 913.9 -1.6 91
2018-01-30 03:00:00 -- 2 Norte 5 Noroeste 0 -- -- --
2018-01-30 02:00:00 -- 4 Noroeste 7 Oeste 0 -- -- --
2018-01-30 01:00:00 -2.5 3 Oeste 6 Noroeste 0 915.5 -- 89
2018-01-30 00:00:00 -1.8 0 Calma 5 Noroeste 0 915.5 0.4 88
2018-01-29 23:00:00 -1.2 0 Calma -- -- -- 915.3 0.5 85
2018-01-29 22:00:00 -- -- -- -- -- -- -- -- --
2018-01-29 21:00:00 -- 0 Calma -- -- -- 915.1 0.7 --
2018-01-29 20:00:00 2.4 2 Oeste 6 Norte 0 914.8 -- 71
2018-01-29 19:00:00 -- 4 Noroeste 9 Nordeste 0 914.4 -0.6 --
2018-01-29 18:00:00 10.6 3 Nordeste -- -- -- 914.4 -- 44
2018-01-29 17:00:00 -- 5 Norte 10 Nordeste 0 -- -- --
2018-01-29 16:00:00 12.3 6 Nordeste 14 Norte 0 915 -2.4 41
2018-01-29 15:00:00 -- 8 Norte 13 Este 0 -- -- --
2018-01-29 14:00:00 11.2 7 Nordeste 14 Este 0 916.2 -2 43
2018-01-29 13:00:00 10.3 4 Nordeste -- -- -- 917.4 -1.1 50
2018-01-29 12:00:00 8.9 0 Calma -- -- -- 918.1 -0.4 59
2018-01-29 11:00:00 4.9 5 Oeste 9 Oeste 0 918.2 -0.1 72
2018-01-29 10:00:00 1 6 Oeste 9 Oeste 0 918.5 0.1 88
2018-01-29 09:00:00 -2.2 4 Oeste -- -- -- 918.5 0.1 91
2018-01-29 08:00:00 -1.3 0 Calma -- -- -- 918.3 -0.4 92
2018-01-29 07:00:00 -2.7 3 Norte 8 Norte 0 918.4 -0.9 91
2018-01-29 06:00:00 -2.5 4 Norte -- -- -- 918.4 -1.1 90
2018-01-29 05:00:00 -2 3 Noroeste 5 Noroeste 0 918.7 -0.8 89
2018-01-29 04:00:00 -1.6 2 Norte 5 Noroeste 0 919.3 -0.4 86
2018-01-29 03:00:00 -0.7 0 Calma 6 Noroeste 0 919.5 -0.3 85
2018-01-29 02:00:00 -- 2 Noroeste 7 Noroeste 0 919.5 -0.3 --
2018-01-29 01:00:00 2.8 2 Noroeste -- -- -- 919.7 0.1 76
2018-01-29 00:00:00 3.4 5 Noroeste 8 Noroeste 0 919.8 -- 78
2018-01-28 23:00:00 4.1 3 Oeste 6 Oeste 0 919.8 0.9 72
2018-01-28 22:00:00 5.3 2 Noroeste 8 Nordeste 0 919.6 1.3 68
2018-01-28 21:00:00 -- -- -- -- -- -- -- -- --
2018-01-28 20:00:00 4.4 2 Noroeste 9 Este 0 918.9 1.7 64
2018-01-28 19:00:00 6.6 4 Nordeste 19 Nordeste 0 918.3 1.3 57
2018-01-28 18:00:00 8.4 10 Este 23 Este 0 917.7 0.5 51
2018-01-28 17:00:00 9.6 10 Este 23 Nordeste 0 917.2 -0.5 48
2018-01-28 16:00:00 9.6 15 Nordeste 29 Este 0 917 -1.2 47
2018-01-28 15:00:00 10 11 Nordeste 31 Este 0 917.2 -1.3 45
2018-01-28 14:00:00 10.5 11 Nordeste 47 Este 0 917.7 -0.8 45
2018-01-28 13:00:00 10 17 Nordeste 36 Este 0 918.2 -- 45
2018-01-28 12:00:00 -- 15 Nordeste 35 Nordeste 0 918.5 1.1 --
2018-01-28 11:00:00 5 6 Noroeste -- -- -- 918.5 1.3 61
2018-01-28 10:00:00 -- 6 Oeste -- -- -- -- -- --
2018-01-28 09:00:00 -2.3 7 Noroeste 14 Oeste 0 917.4 1.5 75
2018-01-28 08:00:00 -2.3 3 Noroeste -- -- -- 917.2 1.2 74
2018-01-28 07:00:00 -2.8 10 Oeste -- -- -- 916.3 0.4 76
2018-01-28 06:00:00 -3.6 4 Noroeste 16 Oeste 0 915.9 0 76
2018-01-28 05:00:00 -3.3 9 Oeste 15 Noroeste 0 916 0.4 75
2018-01-28 04:00:00 -3.4 6 Oeste 16 Oeste 0 915.9 0.3 74
2018-01-28 03:00:00 -2.8 5 Noroeste -- -- -- 915.9 -- 72
2018-01-28 02:00:00 -2.6 3 Noroeste 17 Oeste 0 915.6 0.1 71
2018-01-28 01:00:00 -2.8 7 Oeste 15 Noroeste 0 915.6 0.8 71
2018-01-28 00:00:00 -- 5 Oeste 10 Oeste 0 -- -- --
2018-01-27 23:00:00 -- 2 Noroeste 23 Nordeste 0 915.5 1.5 --
2018-01-27 22:00:00 1.7 12 Nordeste 31 Nordeste 0 914.8 2 50
2018-01-27 21:00:00 0.9 4 Noroeste 21 Norte 0 914.6 2.4 53
2018-01-27 20:00:00 -- 9 Noroeste 27 Noroeste 0 914 2.4 --
2018-01-27 19:00:00 2.3 14 Noroeste 31 Noroeste 0 912.8 1.5 54
2018-01-27 18:00:00 -- 14 Noroeste -- -- -- 912.2 2.1 --
2018-01-27 17:00:00 4.7 14 Noroeste -- -- -- 911.6 0.1 52
2018-01-27 16:00:00 5.3 20 Noroeste 49 Norte 0 911.3 -0.1 44
2018-01-27 15:00:00 4.9 27 Noroeste 54 Noroeste 0 910.1 -1.9 54
2018-01-27 14:00:00 4.5 19 Noroeste 47 Noroeste 0 911.5 -0.7 56
2018-01-27 13:00:00 3.9 11 Noroeste 37 Noroeste 0 911.4 -0.7 59
2018-01-27 12:00:00 1.8 9 Noroeste 32 Noroeste 0 912 0.3 65
2018-01-27 11:00:00 1.1 9 Noroeste 35 Noroeste 0 912.2 0.9 68
2018-01-27 10:00:00 0.7 12 Noroeste -- -- -- 912.1 1 70
2018-01-27 09:00:00 0.5 4 Noroeste 27 Noroeste 0 911.7 1.4 71
2018-01-27 08:00:00 0.3 5 Norte -- -- -- 911.3 0.9 70
2018-01-27 07:00:00 0.1 10 Noroeste 34 Noroeste 0 911.1 1.3 70
2018-01-27 06:00:00 0.2 11 Noroeste 38 Noroeste 0 910.3 -- 71
2018-01-27 05:00:00 0.2 7 Noroeste 46 Noroeste 0 910.4 0.4 70
2018-01-27 04:00:00 0.2 22 Noroeste -- -- -- 909.8 -0.7 69
2018-01-27 03:00:00 -- 21 Noroeste 58 Noroeste 0 -- -- --
2018-01-27 02:00:00 0.3 16 Noroeste 40 Noroeste 0 910 -1 67
2018-01-27 01:00:00 0.5 13 Noroeste -- -- -- 910.5 0.5 65
2018-01-27 00:00:00 0.6 9 Noroeste 43 Noroeste 0 910.5 1.6 63
2018-01-26 23:00:00 0.9 15 Noroeste 39 Noroeste 0 911 2.4 67
2018-01-26 22:00:00 0.8 20 Noroeste 49 Noroeste 0 910 1.9 69
2018-01-26 21:00:00 0.9 24 Noroeste 46 Noroeste 0 908.9 1.2 67
2018-01-26 20:00:00 1.1 18 Noroeste 46 Noroeste 0 908.6 1.6 69
2018-01-26 19:00:00 -- 18 Noroeste 41 Noroeste 0 908.1 2.1 --
2018-01-26 18:00:00 1.1 17 Norte 40 Noroeste 0.3 907.7 1.9 74
2018-01-26 17:00:00 1.3 18 Noroeste -- -- -- 907 1 78
2018-01-26 16:00:00 2.2 25 Noroeste 57 Noroeste 0 906 -0.4 69
2018-01-26 15:00:00 1.7 31 Noroeste 59 Noroeste 0 905.8 -- 75
2018-01-26 14:00:00 1 23 Noroeste -- -- 0.3 906 0.2 75
2018-01-26 13:00:00 1.1 18 Noroeste -- -- -- 906.4 1.2 74
2018-01-26 12:00:00 -- 9 Noroeste 41 Noroeste 0.1 -- -- --
2018-01-26 11:00:00 -- 10 Noroeste 36 Oeste 0 905.8 1.1 --
2018-01-26 10:00:00 -0.7 8 Norte 27 Norte 0 905.2 1.3 79
2018-01-26 09:00:00 -- 5 Noroeste 22 Norte 0 904.7 1.2 --
2018-01-26 08:00:00 -1.1 8 Noroeste -- -- -- 904.7 -- 82
2018-01-26 07:00:00 -1 6 Noroeste 18 Noroeste 0.1 903.9 1.2 83
2018-01-26 06:00:00 -0.8 9 Noroeste -- -- -- 903.5 1.1 84
2018-01-26 05:00:00 -- 7 Oeste -- -- -- -- -- --
2018-01-26 04:00:00 -0.4 12 Noroeste 34 Noroeste 0.3 902.7 0.5 85
2018-01-26 03:00:00 -0.4 9 Noroeste 40 Noroeste 0.2 902.4 0.9 88
2018-01-26 02:00:00 -0.5 14 Noroeste -- -- -- 902.4 1.4 90
2018-01-26 01:00:00 -0.4 17 Noroeste 43 Norte 0.2 902.2 1.5 89
2018-01-26 00:00:00 -0.1 10 Noroeste 36 Norte 0.6 901.5 0.6 87
2018-01-25 23:00:00 1.1 9 Noroeste 19 Noroeste 0.3 901 0.1 85
2018-01-25 22:00:00 1.9 6 Oeste 10 Oeste 0.1 900.7 -0.3 89
2018-01-25 21:00:00 2.1 5 Nordeste 9 Nordeste 0.5 900.9 0.5 89
2018-01-25 20:00:00 2.6 3 Norte 11 Noroeste 0.7 900.9 0 89
2018-01-25 19:00:00 2.8 0 Calma 5 Norte 0.2 901 -0.3 88
2018-01-25 18:00:00 2.9 3 Norte 10 Este 0.8 900.4 -1.3 86
2018-01-25 17:00:00 3 4 Nordeste 10 Nordeste 0 900.9 -2 87
2018-01-25 16:00:00 3.4 3 Norte 10 Norte 0.1 901.3 -2.4 86
2018-01-25 15:00:00 3.7 2 Norte 7 Norte 0.7 901.7 -2.2 84
2018-01-25 14:00:00 3.6 2 Nordeste 10 Oeste 1.2 902.9 -1.3 82
2018-01-25 13:00:00 4.4 2 Noroeste 9 Este 0 903.7 -0.1 79
2018-01-25 12:00:00 3.9 3 Nordeste 8 Noroeste 0 903.9 -1 86
2018-01-25 11:00:00 2.7 0 Calma 6 Este 0 904.2 -0.8 91
2018-01-25 10:00:00 0.9 0 Calma 4 Oeste 0 903.8 -1.3 92
2018-01-25 09:00:00 -0.4 2 Nordeste 6 Noroeste 0 904.9 -0.6 92
2018-01-25 08:00:00 -0.8 2 Noroeste 5 Nordeste 0 905 -0.9 92
2018-01-25 07:00:00 -0.7 0 Calma 5 Oeste 0 905.1 -1.5 92
2018-01-25 06:00:00 -1.2 0 Calma 4 Noroeste 0 905.5 -1.8 92
2018-01-25 05:00:00 -1.4 3 Noroeste 5 Noroeste 0 905.9 -1.9 92
2018-01-25 04:00:00 -0.6 4 Noroeste 6 Noroeste 0 906.6 -1.8 92
2018-01-25 03:00:00 0.1 3 Noroeste 7 Noroeste 0 907.3 -- 92
2018-01-25 02:00:00 0.1 4 Noroeste 8 Oeste 0 907.8 -1.2 92
2018-01-25 01:00:00 0.4 0 Calma 6 Noroeste 0 908.4 -0.6 90
2018-01-25 00:00:00 -- -- -- -- -- -- -- -- --
2018-01-24 23:00:00 1.9 3 Oeste 5 Oeste 0 909 -0.2 88
2018-01-24 22:00:00 2.5 3 Noroeste 4 Oeste 0 909 -0.1 86
2018-01-24 21:00:00 3.4 4 Oeste 5 Oeste 0 909.1 0.3 83
2018-01-24 20:00:00 4.3 4 Nordeste 9 Norte 0 909.2 0.6 78
2018-01-24 19:00:00 6 4 Noroeste 9 Nordeste 0 909.1 0.2 68
2018-01-24 18:00:00 10 4 Nordeste 13 Nordeste 0 908.8 -0.4 58
2018-01-24 17:00:00 11.7 7 Nordeste 14 Este 0 908.6 -1.3 51
2018-01-24 16:00:00 12.7 8 Nordeste 15 Nordeste 0 908.9 -1.9 49
2018-01-24 15:00:00 12.9 7 Nordeste 16 Este 0 909.2 -2.3 48
2018-01-24 14:00:00 13.2 7 Nordeste 16 Nordeste 0 909.9 -1.7 47
2018-01-24 13:00:00 12.4 3 Nordeste 8 Este 0 910.8 -0.3 45
2018-01-24 12:00:00 10.6 3 Nordeste 6 Norte 0 911.5 0 48
2018-01-24 11:00:00 6.9 0 Calma 8 Oeste 0 911.6 0.4 62
2018-01-24 10:00:00 1.7 5 Oeste -- -- -- 911.1 0.1 78
2018-01-24 09:00:00 -3.2 3 Noroeste -- -- -- 911.5 0.5 90
2018-01-24 08:00:00 -3.1 0 Calma 8 Noroeste 0 911.2 -0.3 88
2018-01-24 07:00:00 -2.8 3 Noroeste 9 Noroeste 0 911 -0.7 88
2018-01-24 06:00:00 -2.5 2 Noroeste 9 Oeste 0 911 -0.8 87
2018-01-24 05:00:00 -- 5 Oeste 8 Oeste 0 911.5 -0.5 --
2018-01-24 04:00:00 -1.8 2 Noroeste 5 Noroeste 0 911.7 -0.9 85
2018-01-24 03:00:00 -1.1 4 Noroeste 9 Noroeste 0 911.8 -1.1 83
2018-01-24 02:00:00 -0.5 6 Oeste 8 Oeste 0 912 -0.9 83
2018-01-24 01:00:00 -0.2 4 Noroeste 8 Noroeste 0 912.6 0 82
2018-01-24 00:00:00 -0.1 6 Noroeste 8 Noroeste 0 912.9 0.4 83
2018-01-23 23:00:00 -0.3 0 Calma 3 Oeste 0 912.9 0.2 81
2018-01-23 22:00:00 -- 3 Oeste 4 Noroeste 0 912.6 0.3 --
2018-01-23 21:00:00 1.4 4 Noroeste 5 Noroeste 0 912.5 0.7 77
2018-01-23 20:00:00 3.9 0 Calma 4 Oeste 0 912.7 1.2 75
2018-01-23 19:00:00 5.7 3 Norte 6 Nordeste 0 912.3 1.2 65
2018-01-23 18:00:00 11.5 2 Nordeste 11 Nordeste 0 911.8 0.9 47
2018-01-23 17:00:00 13.4 7 Nordeste 15 Norte 0 911.5 -0.1 42
2018-01-23 16:00:00 14.8 8 Nordeste 16 Nordeste 0 911.1 -1.2 39
2018-01-23 15:00:00 16.6 6 Norte 19 Norte 0 910.9 -2.1 27
2018-01-23 14:00:00 15.6 2 Norte 8 Oeste 0 911.6 -1.8 33
2018-01-23 13:00:00 12.5 5 Oeste 9 Noroeste 0 912.3 -1.3 38
2018-01-23 12:00:00 9.3 0 Calma 5 Norte 0 913 -0.1 50
2018-01-23 11:00:00 4.9 0 Calma 7 Noroeste 0 913.4 1 59
2018-01-23 10:00:00 1.4 3 Oeste 9 Oeste 0 913.6 1.5 73
2018-01-23 09:00:00 -2.9 2 Oeste 6 Oeste 0 913.1 1 86
2018-01-23 08:00:00 -3.6 3 Noroeste 5 Noroeste 0 912.4 -0.1 85
2018-01-23 07:00:00 -3.4 3 Noroeste -- -- -- 912.1 -0.7 84
2018-01-23 06:00:00 -3.3 5 Oeste 7 Oeste 0 912.1 -0.4 83
2018-01-23 05:00:00 -2.7 0 Calma 6 Noroeste 0 912.5 -0.3 81
2018-01-23 04:00:00 -2.5 4 Oeste 8 Oeste 0 912.8 -0.2 79
2018-01-23 03:00:00 -1.2 4 Noroeste 6 Oeste 0 912.5 -0.4 78
2018-01-23 02:00:00 -1.5 4 Noroeste 8 Oeste 0 912.8 0.2 75
2018-01-23 01:00:00 -0.4 3 Oeste 8 Noroeste 0 913 0.8 72
2018-01-23 00:00:00 0.2 5 Noroeste 9 Noroeste 0 912.9 0.3 71
2018-01-22 23:00:00 1.6 6 Noroeste 9 Oeste 0 912.6 0.7 67
2018-01-22 22:00:00 3.4 3 Norte 18 Noroeste 0 912.2 0.2 59
2018-01-22 21:00:00 -- 7 Norte 12 Norte 0 912.6 1.3 --
2018-01-22 20:00:00 6 3 Noroeste 16 Norte 0 911.9 1.1 49
2018-01-22 19:00:00 8.4 3 Nordeste 21 Noroeste 0 912 1.5 37
2018-01-22 18:00:00 11.6 10 Noroeste 24 Noroeste 0 911.3 0.8 31
2018-01-22 17:00:00 14.8 12 Noroeste 34 Noroeste 0 910.8 -0.4 25
2018-01-22 16:00:00 15.8 13 Noroeste 24 Noroeste 0 910.5 -1.3 25
2018-01-22 15:00:00 15.9 9 Noroeste 26 Noroeste 0 910.5 -2 28
2018-01-22 14:00:00 13.1 6 Nordeste 12 Este 0 911.2 -1.5 48
2018-01-22 13:00:00 11.1 7 Este 15 Este 0 911.8 -0.7 55
2018-01-22 12:00:00 8.6 9 Este 13 Nordeste 0 912.5 0.4 65
2018-01-22 11:00:00 6.1 4 Nordeste 9 Este 0 912.7 0.6 71
2018-01-22 10:00:00 2.1 2 Norte 10 Oeste 0 912.5 0.5 81
2018-01-22 09:00:00 -1.7 5 Oeste 12 Oeste 0 912.1 0.1 92
2018-01-22 08:00:00 -2.8 2 Noroeste 7 Oeste 0 912.1 -0.2 91
2018-01-22 07:00:00 -2.4 2 Oeste 6 Noroeste 0 912 -0.6 91
2018-01-22 06:00:00 -1.5 5 Oeste 8 Oeste 0 912 -0.1 91
2018-01-22 05:00:00 -- 0 Calma 7 Noroeste 0 912.3 -0.6 --
2018-01-22 04:00:00 0.2 0 Calma 12 Oeste 0 912.6 -1 89
2018-01-22 03:00:00 0 4 Oeste 6 Oeste 0 912.1 -1.6 89
2018-01-22 02:00:00 1 4 Noroeste 12 Oeste 0 912.9 -0.7 86
2018-01-22 01:00:00 2.4 7 Oeste 12 Oeste 0 913.6 0.1 87
2018-01-22 00:00:00 2.4 6 Oeste 12 Oeste 0 913.7 0.4 86